createdAt,value
2023-03-27T00:00:19.163Z,0.06
2023-03-27T00:01:58.935Z,0.06
2023-03-27T00:03:38.683Z,0.06
2023-03-27T00:05:18.454Z,0.06
2023-03-27T00:06:58.207Z,0.07
2023-03-27T00:08:37.977Z,0.07
2023-03-27T00:10:17.731Z,0.07
2023-03-27T00:11:57.506Z,0.07
2023-03-27T00:13:37.276Z,0.06
2023-03-27T00:15:17.034Z,0.06
2023-03-27T00:16:56.803Z,0.06
2023-03-27T00:18:36.604Z,0.06
2023-03-27T00:20:16.349Z,0.05
2023-03-27T00:21:56.104Z,0.05
2023-03-27T00:23:35.862Z,0.05
2023-03-27T00:25:15.608Z,0.05
2023-03-27T00:26:55.384Z,0.04
2023-03-27T00:28:35.138Z,0.04
2023-03-27T00:30:14.917Z,0.04
2023-03-27T00:31:54.678Z,0.04
2023-03-27T00:33:34.438Z,0.04
2023-03-27T00:35:14.210Z,0.04
2023-03-27T00:36:53.970Z,0.04
2023-03-27T00:38:33.729Z,0.04
2023-03-27T00:40:13.496Z,0.04
2023-03-27T00:41:53.321Z,0.06
2023-03-27T00:43:33.018Z,0.08
2023-03-27T00:45:12.790Z,0.1
2023-03-27T00:46:52.577Z,0.1
2023-03-27T00:48:32.318Z,0.11
2023-03-27T00:50:12.082Z,0.11
2023-03-27T00:51:51.839Z,0.13
2023-03-27T00:53:31.607Z,0.13
2023-03-27T00:55:11.353Z,0.12
2023-03-27T00:56:51.129Z,0.11
2023-03-27T00:58:30.893Z,0.11
2023-03-27T01:00:10.663Z,0.13
2023-03-27T01:01:50.433Z,0.15
2023-03-27T01:03:30.184Z,0.14
2023-03-27T01:05:09.945Z,0.13
2023-03-27T01:06:49.723Z,0.13
2023-03-27T01:08:29.542Z,0.09
2023-03-27T01:10:09.236Z,0.09
2023-03-27T01:11:49.020Z,0.11
2023-03-27T01:13:28.776Z,0.11
2023-03-27T01:15:08.530Z,0.09
2023-03-27T01:16:48.302Z,0.07
2023-03-27T01:18:28.075Z,0.05
2023-03-27T01:20:07.828Z,0.05
2023-03-27T01:21:47.585Z,0.04
2023-03-27T01:23:27.348Z,0.04
2023-03-27T01:25:07.116Z,0.04
2023-03-27T01:26:46.874Z,0.04
2023-03-27T01:28:26.647Z,0.04
2023-03-27T01:30:06.416Z,0.04
2023-03-27T01:31:46.162Z,0.04
2023-03-27T01:33:25.922Z,0.04
2023-03-27T01:35:05.679Z,0.04
2023-03-27T01:36:45.472Z,0.05
2023-03-27T01:38:25.254Z,0.05
2023-03-27T01:40:05.027Z,0.08
2023-03-27T01:41:44.761Z,0.1
2023-03-27T01:43:24.545Z,0.13
2023-03-27T01:45:04.278Z,0.12
2023-03-27T01:46:44.062Z,0.1
2023-03-27T01:48:23.818Z,0.1
2023-03-27T01:50:03.562Z,0.1
2023-03-27T01:51:43.328Z,0.1
2023-03-27T01:53:23.121Z,0.09
2023-03-27T01:55:02.857Z,0.07
2023-03-27T01:56:42.627Z,0.07
2023-03-27T01:58:22.435Z,0.07
2023-03-27T02:00:02.174Z,0.07
2023-03-27T02:01:41.932Z,0.07
2023-03-27T02:03:21.678Z,0.07
2023-03-27T02:05:01.440Z,0.06
2023-03-27T02:06:41.216Z,0.05
2023-03-27T02:08:20.961Z,0.04
2023-03-27T02:10:00.745Z,0.04
2023-03-27T02:11:40.506Z,0.06
2023-03-27T02:13:20.274Z,0.05
2023-03-27T02:15:00.024Z,0.08
2023-03-27T02:16:39.801Z,0.09
2023-03-27T02:18:19.701Z,0.09
2023-03-27T02:19:59.360Z,0.09
2023-03-27T02:21:39.086Z,0.09
2023-03-27T02:23:18.872Z,0.08
2023-03-27T02:24:58.606Z,0.06
2023-03-27T02:26:38.380Z,0.07
2023-03-27T02:28:18.132Z,0.06
2023-03-27T02:29:57.931Z,0.06
2023-03-27T02:31:37.670Z,0.02
2023-03-27T02:33:17.435Z,0.03
2023-03-27T02:34:57.209Z,0.03
2023-03-27T02:36:36.955Z,0.03
2023-03-27T02:38:16.731Z,0.01
2023-03-27T02:39:56.494Z,0.02
2023-03-27T02:41:36.309Z,0.02
2023-03-27T02:43:16.021Z,0.02
2023-03-27T02:44:55.786Z,0.03
2023-03-27T02:46:35.545Z,0.03
2023-03-27T02:48:15.300Z,0.01
2023-03-27T02:49:55.061Z,0.02
2023-03-27T02:51:34.856Z,0.02
2023-03-27T02:53:14.625Z,0.02
2023-03-27T02:54:54.384Z,0.02
2023-03-27T02:56:34.153Z,0.02
2023-03-27T02:58:13.895Z,0
2023-03-27T02:59:53.676Z,0.02
2023-03-27T03:01:33.416Z,0.02
2023-03-27T03:03:13.178Z,0.02
2023-03-27T03:04:52.961Z,0.04
2023-03-27T03:06:32.712Z,0.04
2023-03-27T03:08:12.481Z,0.04
2023-03-27T03:09:52.234Z,0.04
2023-03-27T03:11:32.014Z,0.06
2023-03-27T03:13:11.827Z,0.06
2023-03-27T03:14:51.526Z,0.06
2023-03-27T03:16:31.294Z,0.05
2023-03-27T03:18:11.068Z,0.05
2023-03-27T03:19:50.825Z,0.06
2023-03-27T03:21:30.579Z,0.06
2023-03-27T03:23:10.354Z,0.06
2023-03-27T03:24:50.110Z,0.03
2023-03-27T03:26:29.889Z,0.04
2023-03-27T03:28:09.639Z,0.04
2023-03-27T03:29:49.413Z,0.04
2023-03-27T03:31:29.171Z,0.04
2023-03-27T03:33:08.945Z,0.04
2023-03-27T03:34:48.691Z,0.04
2023-03-27T03:36:28.466Z,0.06
2023-03-27T03:38:08.218Z,0.06
2023-03-27T03:39:47.991Z,0.06
2023-03-27T03:41:27.764Z,0.06
2023-03-27T03:43:07.520Z,0.06
2023-03-27T03:44:47.279Z,0.06
2023-03-27T03:46:27.046Z,0.06
2023-03-27T03:48:06.821Z,0.07
2023-03-27T03:49:46.581Z,0.07
2023-03-27T03:51:26.339Z,0.1
2023-03-27T03:53:06.117Z,0.12
2023-03-27T03:54:45.913Z,0.14
2023-03-27T03:56:25.657Z,0.17
2023-03-27T03:58:05.380Z,0.2
2023-03-27T03:59:45.156Z,0.24
2023-03-27T04:01:24.947Z,0.3
2023-03-27T04:03:04.698Z,0.38
2023-03-27T04:04:44.442Z,0.45
2023-03-27T04:06:24.211Z,0.56
2023-03-27T04:08:03.975Z,0.73
2023-03-27T04:09:43.730Z,0.92
2023-03-27T04:11:23.491Z,1.16
2023-03-27T04:13:03.255Z,1.53
2023-03-27T04:14:43.025Z,2
2023-03-27T04:16:22.778Z,2.64
2023-03-27T04:18:02.550Z,3.48
2023-03-27T04:19:42.315Z,4.59
2023-03-27T04:21:22.068Z,5.89
2023-03-27T04:23:01.845Z,7.43
2023-03-27T04:24:41.610Z,9.2
2023-03-27T04:26:21.364Z,11.24
2023-03-27T04:28:01.126Z,12.54
2023-03-27T04:29:40.907Z,12.59
2023-03-27T04:31:20.658Z,12.61
2023-03-27T04:33:00.434Z,12.63
2023-03-27T04:34:40.206Z,12.65
2023-03-27T04:36:19.952Z,12.66
2023-03-27T04:37:59.722Z,12.67
2023-03-27T04:39:39.495Z,12.69
2023-03-27T04:41:19.251Z,12.7
2023-03-27T04:42:59.010Z,12.71
2023-03-27T04:44:38.791Z,12.72
2023-03-27T04:46:18.582Z,12.71
2023-03-27T04:47:58.304Z,12.71
2023-03-27T04:49:38.065Z,12.74
2023-03-27T04:51:17.835Z,12.75
2023-03-27T04:52:57.600Z,12.76
2023-03-27T04:54:37.367Z,12.77
2023-03-27T04:56:17.134Z,12.78
2023-03-27T04:57:56.899Z,12.8
2023-03-27T04:59:36.646Z,12.81
2023-03-27T05:01:16.416Z,12.82
2023-03-27T05:02:56.186Z,12.83
2023-03-27T05:04:35.942Z,12.89
2023-03-27T05:06:15.692Z,20.28
2023-03-27T05:07:55.482Z,14.22
2023-03-27T05:09:35.234Z,21.48
2023-03-27T05:11:14.992Z,17.08
2023-03-27T05:12:54.769Z,14.07
2023-03-27T05:14:34.531Z,14.05
2023-03-27T05:16:14.297Z,14.03
2023-03-27T05:17:54.069Z,14.02
2023-03-27T05:19:33.810Z,14.01
2023-03-27T05:21:13.581Z,14
2023-03-27T05:22:53.342Z,14.03
2023-03-27T05:24:33.110Z,14.03
2023-03-27T05:26:12.852Z,14.08
2023-03-27T05:27:52.642Z,14.11
2023-03-27T05:29:32.432Z,14.07
2023-03-27T05:31:12.169Z,14.1
2023-03-27T05:32:51.949Z,14.06
2023-03-27T05:34:31.678Z,14.08
2023-03-27T05:36:11.462Z,14.13
2023-03-27T05:37:51.212Z,14.12
2023-03-27T05:39:30.976Z,14.17
2023-03-27T05:41:10.751Z,14.16
2023-03-27T05:42:50.525Z,14.19
2023-03-27T05:44:30.281Z,14.21
2023-03-27T05:46:10.045Z,14.25
2023-03-27T05:47:49.821Z,14.24
2023-03-27T05:49:29.551Z,14.31
2023-03-27T05:51:09.322Z,14.31
2023-03-27T05:52:49.088Z,14.34
2023-03-27T05:54:28.842Z,14.33
2023-03-27T05:56:08.610Z,14.44
2023-03-27T05:57:48.378Z,14.44
2023-03-27T05:59:28.145Z,14.4
2023-03-27T06:01:07.926Z,14.42
2023-03-27T06:02:47.695Z,14.42
2023-03-27T06:04:27.442Z,14.41
2023-03-27T06:06:07.209Z,14.43
2023-03-27T06:07:46.959Z,14.45
2023-03-27T06:09:26.717Z,14.47
2023-03-27T06:11:06.492Z,17.51
2023-03-27T06:12:46.263Z,16.15
2023-03-27T06:14:26.031Z,14.62
2023-03-27T06:16:05.809Z,14.67
2023-03-27T06:17:45.536Z,14.71
2023-03-27T06:19:25.317Z,14.73
2023-03-27T06:21:05.116Z,14.76
2023-03-27T06:22:44.838Z,14.79
2023-03-27T06:24:24.599Z,14.83
2023-03-27T06:26:04.392Z,14.86
2023-03-27T06:27:44.118Z,14.9
2023-03-27T06:29:23.902Z,14.93
2023-03-27T06:31:03.671Z,14.93
2023-03-27T06:32:43.442Z,14.99
2023-03-27T06:34:23.185Z,15.01
2023-03-27T06:36:02.957Z,15.1
2023-03-27T06:37:42.749Z,15.15
2023-03-27T06:39:22.469Z,15.18
2023-03-27T06:41:02.249Z,15.32
2023-03-27T06:42:42.038Z,16.02
2023-03-27T06:44:21.772Z,47.55
2023-03-27T06:46:01.533Z,47.37
2023-03-27T06:47:41.312Z,47.71
2023-03-27T06:49:21.070Z,47.77
2023-03-27T06:51:00.818Z,47.97
2023-03-27T06:52:40.590Z,47.92
2023-03-27T06:54:20.353Z,48.12
2023-03-27T06:56:00.211Z,46.01
2023-03-27T06:57:39.900Z,46.41
2023-03-27T06:59:19.667Z,46.39
2023-03-27T07:00:59.484Z,48.48
2023-03-27T07:02:39.193Z,46.76
2023-03-27T07:04:19.015Z,46.29
2023-03-27T07:05:58.704Z,46.23
2023-03-27T07:07:38.467Z,46.48
2023-03-27T07:09:18.228Z,46.61
2023-03-27T07:10:57.987Z,46.68
2023-03-27T07:12:37.783Z,46.35
2023-03-27T07:14:17.517Z,45.89
2023-03-27T07:15:57.324Z,44.95
2023-03-27T07:17:37.035Z,43.87
2023-03-27T07:19:16.818Z,43.99
2023-03-27T07:20:56.581Z,46.67
2023-03-27T07:22:36.326Z,49.14
2023-03-27T07:24:16.143Z,49.02
2023-03-27T07:25:55.876Z,48.12
2023-03-27T07:27:35.626Z,45.59
2023-03-27T07:29:15.402Z,48.79
2023-03-27T07:30:55.161Z,45.39
2023-03-27T07:32:34.909Z,48.61
2023-03-27T07:34:14.688Z,48.73
2023-03-27T07:35:54.480Z,48.67
2023-03-27T07:37:34.332Z,44.98
2023-03-27T07:39:13.983Z,45.44
2023-03-27T07:40:54.012Z,44.88
2023-03-27T07:42:33.489Z,44.64
2023-03-27T07:44:13.310Z,45.63
2023-03-27T07:45:53.128Z,46.12
2023-03-27T07:47:32.800Z,46.74
2023-03-27T07:49:12.565Z,47.32
2023-03-27T07:50:52.434Z,47.52
2023-03-27T07:52:32.288Z,47.26
2023-03-27T07:54:11.907Z,46.38
2023-03-27T07:55:51.608Z,47.94
2023-03-27T07:57:31.385Z,46.75
2023-03-27T07:59:11.146Z,45.84
2023-03-27T08:00:50.947Z,45.8
2023-03-27T08:02:30.727Z,45.41
2023-03-27T08:04:10.421Z,44.61
2023-03-27T08:05:50.233Z,45.31
2023-03-27T08:07:29.972Z,46.08
2023-03-27T08:09:09.731Z,47.03
2023-03-27T08:10:49.490Z,46.51
2023-03-27T08:12:29.306Z,46.52
2023-03-27T08:14:09.018Z,47.56
2023-03-27T08:15:48.801Z,46.7
2023-03-27T08:17:28.551Z,45.53
2023-03-27T08:19:08.305Z,45.27
2023-03-27T08:20:48.061Z,46.48
2023-03-27T08:22:27.828Z,46.47
2023-03-27T08:24:07.600Z,49.83
2023-03-27T08:25:47.436Z,45.43
2023-03-27T08:27:27.134Z,46.14
2023-03-27T08:29:06.880Z,46.96
2023-03-27T08:30:46.716Z,48.37
2023-03-27T08:32:26.417Z,49.42
2023-03-27T08:34:06.273Z,49.2
2023-03-27T08:35:45.952Z,49.14
2023-03-27T08:37:25.727Z,48.87
2023-03-27T08:39:05.485Z,48.87
2023-03-27T08:40:45.238Z,46.47
2023-03-27T08:42:24.990Z,46.36
2023-03-27T08:44:04.775Z,46.93
2023-03-27T08:45:44.527Z,49.22
2023-03-27T08:47:24.299Z,48.59
2023-03-27T08:49:04.055Z,46.3
2023-03-27T08:50:43.820Z,47.21
2023-03-27T08:52:23.571Z,46.49
2023-03-27T08:54:03.353Z,49.09
2023-03-27T08:55:43.102Z,48.52
2023-03-27T08:57:22.882Z,47.88
2023-03-27T08:59:02.649Z,49.08
2023-03-27T09:00:42.455Z,46.54
2023-03-27T09:02:22.174Z,46.81
2023-03-27T09:04:01.932Z,47.19
2023-03-27T09:05:41.692Z,47.52
2023-03-27T09:07:21.461Z,47.54
2023-03-27T09:09:01.222Z,47.43
2023-03-27T09:10:40.991Z,49.48
2023-03-27T09:12:20.750Z,47.11
2023-03-27T09:14:00.530Z,49.44
2023-03-27T09:15:40.281Z,49.02
2023-03-27T09:17:20.054Z,49.25
2023-03-27T09:18:59.814Z,49.08
2023-03-27T09:20:39.565Z,48.9
2023-03-27T09:22:19.359Z,45.46
2023-03-27T09:23:59.111Z,48.94
2023-03-27T09:25:38.862Z,46.19
2023-03-27T09:27:18.621Z,48.82
2023-03-27T09:28:58.404Z,48.24
2023-03-27T09:30:38.154Z,45.81
2023-03-27T09:32:17.909Z,46.55
2023-03-27T09:33:57.682Z,46.22
2023-03-27T09:35:37.442Z,46.76
2023-03-27T09:37:17.215Z,46.59
2023-03-27T09:38:56.984Z,49.72
2023-03-27T09:40:36.749Z,49.6
2023-03-27T09:42:16.528Z,47.75
2023-03-27T09:43:56.265Z,48
2023-03-27T09:45:36.046Z,46.25
2023-03-27T09:47:15.790Z,46.43
2023-03-27T09:48:55.556Z,47.21
2023-03-27T09:50:35.632Z,47.28
2023-03-27T09:52:15.088Z,47.19
2023-03-27T09:53:54.848Z,47.51
2023-03-27T09:55:34.604Z,49.83
2023-03-27T09:57:14.379Z,49.44
2023-03-27T09:58:54.156Z,46.26
2023-03-27T10:00:33.922Z,45.79
2023-03-27T10:02:13.683Z,45.23
2023-03-27T10:03:53.452Z,45.53
2023-03-27T10:05:33.187Z,47.23
2023-03-27T10:07:12.969Z,49.53
2023-03-27T10:08:52.724Z,47.12
2023-03-27T10:10:32.534Z,48.93
2023-03-27T10:12:12.271Z,45.97
2023-03-27T10:13:52.031Z,45.83
2023-03-27T10:15:31.799Z,46.22
2023-03-27T10:17:11.541Z,47.87
2023-03-27T10:18:51.320Z,47.49
2023-03-27T10:20:31.070Z,49.43
2023-03-27T10:22:10.839Z,49.07
2023-03-27T10:23:50.609Z,48.64
2023-03-27T10:25:30.426Z,48.73
2023-03-27T10:27:10.138Z,48.39
2023-03-27T10:28:49.889Z,48.44
2023-03-27T10:30:29.692Z,48.45
2023-03-27T10:32:09.464Z,48.43
2023-03-27T10:33:49.225Z,48.59
2023-03-27T10:35:28.954Z,48.18
2023-03-27T10:37:08.736Z,47.43
2023-03-27T10:38:48.649Z,45.92
2023-03-27T10:40:28.341Z,45.9
2023-03-27T10:42:08.118Z,45.81
2023-03-27T10:43:47.870Z,46.2
2023-03-27T10:45:27.637Z,46.49
2023-03-27T10:47:07.444Z,48.8
2023-03-27T10:48:47.074Z,49.7
2023-03-27T10:50:26.944Z,49.14
2023-03-27T10:52:06.627Z,48.83
2023-03-27T10:53:46.352Z,48.83
2023-03-27T10:55:26.250Z,48.59
2023-03-27T10:57:05.879Z,47.55
2023-03-27T10:58:45.794Z,48.28
2023-03-27T11:00:25.550Z,48.23
2023-03-27T11:02:05.226Z,48.19
2023-03-27T11:03:44.955Z,47.99
2023-03-27T11:05:24.694Z,48
2023-03-27T11:07:04.457Z,47.71
2023-03-27T11:08:44.231Z,45.82
2023-03-27T11:10:24.039Z,45.3
2023-03-27T11:12:03.735Z,45.89
2023-03-27T11:13:43.509Z,49.19
2023-03-27T11:15:23.295Z,48.73
2023-03-27T11:17:03.041Z,48.5
2023-03-27T11:18:42.833Z,48.31
2023-03-27T11:20:22.599Z,48.25
2023-03-27T11:22:02.333Z,48.3
2023-03-27T11:23:42.174Z,48.34
2023-03-27T11:25:21.870Z,48.32
2023-03-27T11:27:01.615Z,48.38
2023-03-27T11:28:41.431Z,48.33
2023-03-27T11:30:21.175Z,48.35
2023-03-27T11:32:00.963Z,48.38
2023-03-27T11:33:40.694Z,48.4
2023-03-27T11:35:20.444Z,48.32
2023-03-27T11:37:00.193Z,48.16
2023-03-27T11:38:39.994Z,48.06
2023-03-27T11:40:19.745Z,47.94
2023-03-27T11:41:59.511Z,47.93
2023-03-27T11:43:39.265Z,47.89
2023-03-27T11:45:19.031Z,47.92
2023-03-27T11:46:58.798Z,47.24
2023-03-27T11:48:38.555Z,48.25
2023-03-27T11:50:18.316Z,48.57
2023-03-27T11:51:58.251Z,45.64
2023-03-27T11:53:37.856Z,48.68
2023-03-27T11:55:17.622Z,48.36
2023-03-27T11:56:57.371Z,48.1
2023-03-27T11:58:37.167Z,46.42
2023-03-27T12:00:16.913Z,48.71
2023-03-27T12:01:56.666Z,46.91
2023-03-27T12:03:36.442Z,48.39
2023-03-27T12:05:16.257Z,46.49
2023-03-27T12:06:55.960Z,46.34
2023-03-27T12:08:35.729Z,46.1
2023-03-27T12:10:15.509Z,46.12
2023-03-27T12:11:55.253Z,46.62
2023-03-27T12:13:35.019Z,49.37
2023-03-27T12:15:14.787Z,46
2023-03-27T12:16:54.591Z,46.61
2023-03-27T12:18:34.329Z,46.27
2023-03-27T12:20:14.082Z,46.1
2023-03-27T12:21:53.845Z,46.42
2023-03-27T12:23:33.604Z,46.44
2023-03-27T12:25:13.368Z,46.08
2023-03-27T12:26:53.116Z,45.72
2023-03-27T12:28:32.908Z,45.89
2023-03-27T12:30:12.645Z,46.24
2023-03-27T12:31:52.417Z,45.94
2023-03-27T12:33:32.186Z,45.18
2023-03-27T12:35:11.951Z,45.48
2023-03-27T12:36:51.712Z,50.17
2023-03-27T12:38:31.456Z,46.09
2023-03-27T12:40:11.238Z,49.8
2023-03-27T12:41:51.011Z,49.27
2023-03-27T12:43:30.778Z,48.85
2023-03-27T12:45:10.528Z,48.62
2023-03-27T12:46:50.283Z,48.45
2023-03-27T12:48:30.053Z,48.32
2023-03-27T12:50:09.812Z,46.83
2023-03-27T12:51:49.584Z,46.8
2023-03-27T12:53:29.349Z,45.49
2023-03-27T12:55:09.137Z,46.02
2023-03-27T12:56:48.878Z,49.04
2023-03-27T12:58:28.642Z,48.71
2023-03-27T13:00:08.402Z,45.73
2023-03-27T13:01:48.170Z,46.68
2023-03-27T13:03:27.920Z,46.81
2023-03-27T13:05:07.708Z,46.95
2023-03-27T13:06:47.466Z,47.2
2023-03-27T13:08:27.243Z,47.39
2023-03-27T13:10:06.977Z,47.3
2023-03-27T13:11:46.752Z,46.54
2023-03-27T13:13:26.523Z,45.55
2023-03-27T13:15:06.290Z,44.69
2023-03-27T13:16:46.040Z,43.89
2023-03-27T13:18:25.821Z,43.25
2023-03-27T13:20:05.623Z,42.95
2023-03-27T13:21:45.352Z,42.99
2023-03-27T13:23:25.105Z,43.43
2023-03-27T13:25:04.862Z,44.29
2023-03-27T13:26:44.629Z,45.1
2023-03-27T13:28:24.400Z,46.24
2023-03-27T13:30:04.165Z,46.33
2023-03-27T13:31:43.926Z,46.59
2023-03-27T13:33:23.681Z,46.86
2023-03-27T13:35:03.493Z,47.37
2023-03-27T13:36:43.222Z,47.34
2023-03-27T13:38:22.984Z,50.21
2023-03-27T13:40:02.743Z,49.6
2023-03-27T13:41:42.493Z,47.61
2023-03-27T13:43:22.264Z,46.63
2023-03-27T13:45:02.065Z,46.54
2023-03-27T13:46:41.792Z,46.33
2023-03-27T13:48:21.556Z,45.91
2023-03-27T13:50:02.280Z,45.51
2023-03-27T13:51:41.081Z,44.93
2023-03-27T13:53:20.858Z,44.75
2023-03-27T13:55:00.635Z,47.08
2023-03-27T13:56:40.409Z,47.06
2023-03-27T13:58:20.128Z,47.47
2023-03-27T13:59:59.903Z,47.3
2023-03-27T14:01:39.674Z,46.95
2023-03-27T14:03:19.438Z,46.58
2023-03-27T14:04:59.198Z,45.99
2023-03-27T14:06:38.970Z,45.53
2023-03-27T14:08:18.721Z,45.36
2023-03-27T14:09:58.487Z,45.03
2023-03-27T14:11:38.250Z,44.77
2023-03-27T14:13:18.029Z,45.07
2023-03-27T14:14:57.774Z,45.13
2023-03-27T14:16:37.547Z,45.58
2023-03-27T14:18:17.310Z,46.38
2023-03-27T14:19:57.071Z,48.08
2023-03-27T14:21:36.826Z,48.96
2023-03-27T14:23:16.616Z,49.16
2023-03-27T14:24:56.390Z,48.83
2023-03-27T14:26:36.130Z,48.57
2023-03-27T14:28:15.901Z,48.4
2023-03-27T14:29:55.656Z,48.3
2023-03-27T14:31:35.420Z,48.17
2023-03-27T14:33:15.191Z,48.19
2023-03-27T14:34:54.950Z,46.83
2023-03-27T14:36:34.706Z,47.11
2023-03-27T14:38:14.500Z,47.97
2023-03-27T14:39:54.250Z,47.96
2023-03-27T14:41:34.012Z,47.92
2023-03-27T14:43:13.754Z,47.98
2023-03-27T14:44:53.554Z,47.84
2023-03-27T14:46:33.312Z,48.03
2023-03-27T14:48:13.065Z,48.14
2023-03-27T14:49:52.833Z,48.11
2023-03-27T14:51:32.580Z,48.03
2023-03-27T14:53:12.360Z,47.99
2023-03-27T14:54:52.119Z,48
2023-03-27T14:56:31.897Z,48
2023-03-27T14:58:11.661Z,47.94
2023-03-27T14:59:51.425Z,47.88
2023-03-27T15:01:31.202Z,47.72
2023-03-27T15:03:10.950Z,47.83
2023-03-27T15:04:50.734Z,47.92
2023-03-27T15:06:30.475Z,47.77
2023-03-27T15:08:10.239Z,48.02
2023-03-27T15:09:50.000Z,47.96
2023-03-27T15:11:29.775Z,47.85
2023-03-27T15:13:09.615Z,47.81
2023-03-27T15:14:49.310Z,47.36
2023-03-27T15:16:29.071Z,47.35
2023-03-27T15:18:08.818Z,47.67
2023-03-27T15:19:48.622Z,47.62
2023-03-27T15:21:28.338Z,47.94
2023-03-27T15:23:08.113Z,48.09
2023-03-27T15:24:48.027Z,48.09
2023-03-27T15:26:27.674Z,47.4
2023-03-27T15:28:07.486Z,47.01
2023-03-27T15:29:47.158Z,46.68
2023-03-27T15:31:27.017Z,46.55
2023-03-27T15:33:06.694Z,45.75
2023-03-27T15:34:46.475Z,46.85
2023-03-27T15:36:26.222Z,45.98
2023-03-27T15:38:06.082Z,46.87
2023-03-27T15:39:45.753Z,45.92
2023-03-27T15:41:25.510Z,46.09
2023-03-27T15:43:05.266Z,46.07
2023-03-27T15:44:45.108Z,46.56
2023-03-27T15:46:24.802Z,46.55
2023-03-27T15:48:04.572Z,46.22
2023-03-27T15:49:44.339Z,46.42
2023-03-27T15:51:24.095Z,47
2023-03-27T15:53:03.860Z,46.25
2023-03-27T15:54:43.633Z,46.24
2023-03-27T15:56:23.381Z,46.48
2023-03-27T15:58:03.146Z,46.38
2023-03-27T15:59:42.922Z,45.86
2023-03-27T16:01:22.699Z,45.45
2023-03-27T16:03:02.434Z,45.17
2023-03-27T16:04:42.216Z,44.92
2023-03-27T16:06:21.982Z,44.43
2023-03-27T16:08:01.729Z,43.44
2023-03-27T16:09:41.503Z,42.33
2023-03-27T16:11:21.256Z,40.65
2023-03-27T16:13:01.134Z,38.41
2023-03-27T16:14:40.793Z,32.87
2023-03-27T16:16:20.557Z,16.36
2023-03-27T16:18:00.325Z,16.08
2023-03-27T16:19:40.072Z,30.1
2023-03-27T16:21:19.912Z,17.62
2023-03-27T16:22:59.606Z,14.52
2023-03-27T16:24:39.386Z,20.04
2023-03-27T16:26:19.132Z,21.36
2023-03-27T16:27:58.923Z,13.33
2023-03-27T16:29:38.657Z,13.23
2023-03-27T16:31:18.433Z,13.2
2023-03-27T16:32:58.196Z,13.16
2023-03-27T16:34:37.972Z,13.17
2023-03-27T16:36:17.725Z,13.2
2023-03-27T16:37:57.474Z,13.22
2023-03-27T16:39:37.245Z,17.61
2023-03-27T16:41:17.020Z,15.39
2023-03-27T16:42:56.775Z,14.47
2023-03-27T16:44:36.541Z,14.63
2023-03-27T16:46:16.291Z,14.9
2023-03-27T16:47:56.078Z,15
2023-03-27T16:49:35.840Z,21.54
2023-03-27T16:51:15.589Z,44.24
2023-03-27T16:52:55.363Z,43.26
2023-03-27T16:54:35.115Z,42.14
2023-03-27T16:56:14.892Z,41.58
2023-03-27T16:57:54.655Z,41.27
2023-03-27T16:59:34.415Z,40.75
2023-03-27T17:01:14.170Z,40.93
2023-03-27T17:02:53.943Z,40.77
2023-03-27T17:04:33.713Z,41.58
2023-03-27T17:06:13.496Z,41.3
2023-03-27T17:07:53.271Z,40.88
2023-03-27T17:09:33.022Z,39.93
2023-03-27T17:11:12.773Z,39.93
2023-03-27T17:12:52.550Z,39.18
2023-03-27T17:14:32.297Z,37.18
2023-03-27T17:16:12.064Z,35.63
2023-03-27T17:17:51.831Z,32.02
2023-03-27T17:19:31.587Z,20.25
2023-03-27T17:21:11.335Z,14.74
2023-03-27T17:22:51.119Z,15.63
2023-03-27T17:24:30.861Z,15.63
2023-03-27T17:26:10.661Z,17.29
2023-03-27T17:27:50.401Z,13.36
2023-03-27T17:29:30.166Z,13.37
2023-03-27T17:31:09.918Z,13.3
2023-03-27T17:32:49.709Z,13.26
2023-03-27T17:34:29.530Z,13.23
2023-03-27T17:36:09.226Z,13.2
2023-03-27T17:37:48.991Z,13.17
2023-03-27T17:39:28.754Z,13.13
2023-03-27T17:41:08.504Z,13.11
2023-03-27T17:42:48.264Z,13.09
2023-03-27T17:44:28.041Z,13.09
2023-03-27T17:46:07.804Z,13.05
2023-03-27T17:47:47.563Z,13.05
2023-03-27T17:49:27.324Z,13.03
2023-03-27T17:51:07.097Z,13.02
2023-03-27T17:52:46.857Z,13
2023-03-27T17:54:26.621Z,12.98
2023-03-27T17:56:06.443Z,12.97
2023-03-27T17:57:46.138Z,12.95
2023-03-27T17:59:25.903Z,12.89
2023-03-27T18:01:05.743Z,11.83
2023-03-27T18:02:45.431Z,9.27
2023-03-27T18:04:25.196Z,7.1
2023-03-27T18:06:04.964Z,5.39
2023-03-27T18:07:44.727Z,4.13
2023-03-27T18:09:24.490Z,3.19
2023-03-27T18:11:04.253Z,2.46
2023-03-27T18:12:44.031Z,1.9
2023-03-27T18:14:23.795Z,1.47
2023-03-27T18:16:03.541Z,1.12
2023-03-27T18:17:43.310Z,0.85
2023-03-27T18:19:23.078Z,0.65
2023-03-27T18:21:02.908Z,0.52
2023-03-27T18:22:42.600Z,0.45
2023-03-27T18:24:22.382Z,0.35
2023-03-27T18:26:02.137Z,0.28
2023-03-27T18:27:41.895Z,0.23
2023-03-27T18:29:21.652Z,0.2
2023-03-27T18:31:01.436Z,0.17
2023-03-27T18:32:41.174Z,0.16
2023-03-27T18:34:20.944Z,0.15
2023-03-27T18:36:00.710Z,0.16
2023-03-27T18:37:40.468Z,0.16
2023-03-27T18:39:20.240Z,0.18
2023-03-27T18:41:00.022Z,0.17
2023-03-27T18:42:39.769Z,0.21
2023-03-27T18:44:19.557Z,0.23
2023-03-27T18:45:59.304Z,0.25
2023-03-27T18:47:39.062Z,0.26
2023-03-27T18:49:18.824Z,0.25
2023-03-27T18:50:58.592Z,0.25
2023-03-27T18:52:38.343Z,0.18
2023-03-27T18:54:18.133Z,0.15
2023-03-27T18:55:57.886Z,0.12
2023-03-27T18:57:37.663Z,0.1
2023-03-27T18:59:17.395Z,0.08
2023-03-27T19:00:57.172Z,0.1
2023-03-27T19:02:36.969Z,0.08
2023-03-27T19:04:16.693Z,0.08
2023-03-27T19:05:56.487Z,0.08
2023-03-27T19:07:36.270Z,0.07
2023-03-27T19:09:15.987Z,0.07
2023-03-27T19:10:55.770Z,0.06
2023-03-27T19:12:35.501Z,0.06
2023-03-27T19:14:15.292Z,0.06
2023-03-27T19:15:55.061Z,0.06
2023-03-27T19:17:34.808Z,0.07
2023-03-27T19:19:14.567Z,0.05
2023-03-27T19:20:54.358Z,0.06
2023-03-27T19:22:34.113Z,0.06
2023-03-27T19:24:13.884Z,0.05
2023-03-27T19:25:53.632Z,0.06
2023-03-27T19:27:33.391Z,0.06
2023-03-27T19:29:13.142Z,0.06
2023-03-27T19:30:52.920Z,0.06
2023-03-27T19:32:32.701Z,0.06
2023-03-27T19:34:12.475Z,0.06
2023-03-27T19:35:52.220Z,0.06
2023-03-27T19:37:31.974Z,0.05
2023-03-27T19:39:11.732Z,0.05
2023-03-27T19:40:51.486Z,0.06
2023-03-27T19:42:31.270Z,0.07
2023-03-27T19:44:11.057Z,0.07
2023-03-27T19:45:50.808Z,0.05
2023-03-27T19:47:30.562Z,0.06
2023-03-27T19:49:10.322Z,0.06
2023-03-27T19:50:50.075Z,0.05
2023-03-27T19:52:29.838Z,0.05
2023-03-27T19:54:09.620Z,0.05
2023-03-27T19:55:49.375Z,0.05
2023-03-27T19:57:29.183Z,0.04
2023-03-27T19:59:08.911Z,0.05
2023-03-27T20:00:48.659Z,0.05
2023-03-27T20:02:28.431Z,0.06
2023-03-27T20:04:08.213Z,0.06
2023-03-27T20:05:47.962Z,0.06
2023-03-27T20:07:27.736Z,0.08
2023-03-27T20:09:07.488Z,0.05
2023-03-27T20:10:47.254Z,0.11
2023-03-27T20:12:27.050Z,0.13
2023-03-27T20:14:06.773Z,0.16
2023-03-27T20:15:46.548Z,0.16
2023-03-27T20:17:26.297Z,0.14
2023-03-27T20:19:06.075Z,0.1
2023-03-27T20:20:45.819Z,0.13
2023-03-27T20:22:25.635Z,0.14
2023-03-27T20:24:05.360Z,0.08
2023-03-27T20:25:45.186Z,0.12
2023-03-27T20:27:24.902Z,0.14
2023-03-27T20:29:04.668Z,0.15
2023-03-27T20:30:44.425Z,0.13
2023-03-27T20:32:24.196Z,0.13
2023-03-27T20:34:03.972Z,0.15
2023-03-27T20:35:43.701Z,0.12
2023-03-27T20:37:23.488Z,0.12
2023-03-27T20:39:03.246Z,0.08
2023-03-27T20:40:43.055Z,0.08
2023-03-27T20:42:22.771Z,0.08
2023-03-27T20:44:02.553Z,0.07
2023-03-27T20:45:42.295Z,0.05
2023-03-27T20:47:22.058Z,0.02
2023-03-27T20:49:01.813Z,0.06
2023-03-27T20:50:41.621Z,0.06
2023-03-27T20:52:21.395Z,0.06
2023-03-27T20:54:01.212Z,0.06
2023-03-27T20:55:40.880Z,0.04
2023-03-27T20:57:20.675Z,0.06
2023-03-27T20:59:00.419Z,0.05
2023-03-27T21:00:40.177Z,0.05
2023-03-27T21:02:19.931Z,0.05
2023-03-27T21:03:59.718Z,0.04
2023-03-27T21:05:39.456Z,0.05
2023-03-27T21:07:19.225Z,0.05
2023-03-27T21:08:58.994Z,0.05
2023-03-27T21:10:38.754Z,0.06
2023-03-27T21:12:18.521Z,0.06
2023-03-27T21:13:58.280Z,0.06
2023-03-27T21:15:38.048Z,0.08
2023-03-27T21:17:17.832Z,0.07
2023-03-27T21:18:57.576Z,0.05
2023-03-27T21:20:37.367Z,0.08
2023-03-27T21:22:17.125Z,0.07
2023-03-27T21:23:56.917Z,0.07
2023-03-27T21:25:36.632Z,0.06
2023-03-27T21:27:16.439Z,0.07
2023-03-27T21:28:56.149Z,0.06
2023-03-27T21:30:35.922Z,0.06
2023-03-27T21:32:15.717Z,0.06
2023-03-27T21:33:55.530Z,0.08
2023-03-27T21:35:35.223Z,0.08
2023-03-27T21:37:14.975Z,0.09
2023-03-27T21:38:54.783Z,0.11
2023-03-27T21:40:34.525Z,0.11
2023-03-27T21:42:14.261Z,0.11
2023-03-27T21:43:54.086Z,0.11
2023-03-27T21:45:33.813Z,0.11